createdAt,value
2023-01-19T00:00:31.533Z,-5.04
2023-01-19T00:02:58.229Z,-5.09
2023-01-19T00:05:24.767Z,-5.15
2023-01-19T00:07:51.215Z,-5.15
2023-01-19T00:10:17.941Z,-5.12
2023-01-19T00:12:44.359Z,-5.18
2023-01-19T00:15:11.822Z,-5.12
2023-01-19T00:17:40.974Z,-5.14
2023-01-19T00:20:09.392Z,-5.24
2023-01-19T00:22:35.921Z,-5.20
2023-01-19T00:25:02.825Z,-5.29
2023-01-19T00:27:30.446Z,-5.23
2023-01-19T00:29:57.184Z,-5.38
2023-01-19T00:32:23.716Z,-5.42
2023-01-19T00:34:52.292Z,-5.45
2023-01-19T00:37:18.767Z,-5.57
2023-01-19T00:39:45.265Z,-5.65
2023-01-19T00:42:31.653Z,-5.63
2023-01-19T00:44:58.321Z,-5.61
2023-01-19T00:47:25.087Z,-5.57
2023-01-19T00:49:51.653Z,-5.56
2023-01-19T00:52:18.199Z,-5.47
2023-01-19T00:54:44.614Z,-5.52
2023-01-19T00:57:11.207Z,-5.51
2023-01-19T00:59:37.697Z,-5.60
2023-01-19T01:02:04.346Z,-5.61
2023-01-19T01:04:31.095Z,-5.64
2023-01-19T01:06:57.540Z,-5.76
2023-01-19T01:09:24.245Z,-5.78
2023-01-19T01:11:50.707Z,-5.83
2023-01-19T01:14:18.192Z,-5.81
2023-01-19T01:16:44.915Z,-5.83
2023-01-19T01:19:11.509Z,-5.84
2023-01-19T01:21:38.016Z,-5.84
2023-01-19T01:24:05.051Z,-5.93
2023-01-19T01:26:31.868Z,-5.87
2023-01-19T01:28:58.337Z,-5.99
2023-01-19T01:31:25.177Z,-5.89
2023-01-19T01:33:51.733Z,-5.92
2023-01-19T01:36:19.069Z,-5.87
2023-01-19T01:38:45.549Z,-5.81
2023-01-19T01:41:12.014Z,-5.84
2023-01-19T01:43:58.593Z,-5.84
2023-01-19T01:46:26.683Z,-5.85
2023-01-19T01:49:13.825Z,-5.87
2023-01-19T01:51:52.309Z,-5.86
2023-01-19T01:54:32.277Z,-5.88
2023-01-19T01:57:04.148Z,-5.78
2023-01-19T01:59:39.166Z,-5.89
2023-01-19T02:02:30.070Z,-5.92
2023-01-19T02:09:14.295Z,-6.10
2023-01-19T02:12:00.490Z,-6.13
2023-01-19T02:14:27.111Z,-6.17
2023-01-19T02:16:53.793Z,-6.21
2023-01-19T02:19:27.093Z,-6.14
2023-01-19T02:22:03.572Z,-6.10
2023-01-19T02:24:30.550Z,-6.11
2023-01-19T02:26:57.888Z,-6.16
2023-01-19T02:29:26.538Z,-6.17
2023-01-19T02:31:54.078Z,-6.20
2023-01-19T02:34:22.742Z,-6.17
2023-01-19T02:36:54.370Z,-6.20
2023-01-19T02:39:28.923Z,-6.31
2023-01-19T02:42:02.708Z,-6.33
2023-01-19T02:44:30.471Z,-6.28
2023-01-19T02:46:57.256Z,-6.23
2023-01-19T02:49:27.847Z,-6.31
2023-01-19T02:51:54.469Z,-6.44
2023-01-19T02:54:48.378Z,-6.62
2023-01-19T02:57:20.544Z,-6.56
2023-01-19T03:00:05.194Z,-6.54
2023-01-19T03:02:47.039Z,-6.63
2023-01-19T03:05:20.071Z,-6.62
2023-01-19T03:08:08.190Z,-6.64
2023-01-19T03:11:03.819Z,-6.46
2023-01-19T03:13:42.377Z,-6.42
2023-01-19T03:16:32.331Z,-6.43
2023-01-19T03:19:06.487Z,-6.39
2023-01-19T03:21:36.792Z,-6.45
2023-01-19T03:24:06.397Z,-6.41
2023-01-19T03:26:38.980Z,-6.43
2023-01-19T03:29:08.459Z,-6.44
2023-01-19T03:31:36.896Z,-6.45
2023-01-19T03:34:08.093Z,-6.46
2023-01-19T03:36:42.755Z,-6.55
2023-01-19T03:39:12.345Z,-6.60
2023-01-19T03:41:41.141Z,-6.55
2023-01-19T03:44:08.705Z,-6.56
2023-01-19T03:46:35.302Z,-6.57
2023-01-19T03:49:01.897Z,-6.70
2023-01-19T03:51:28.351Z,-6.77
2023-01-19T03:53:54.792Z,-6.72
2023-01-19T03:56:25.419Z,-6.86
2023-01-19T03:58:52.490Z,-6.83
2023-01-19T04:01:23.040Z,-6.84
2023-01-19T04:03:50.548Z,-7.01
2023-01-19T04:06:17.530Z,-6.89
2023-01-19T04:08:44.058Z,-7.02
2023-01-19T04:11:10.568Z,-6.91
2023-01-19T04:13:38.433Z,-7.04
2023-01-19T04:16:05.561Z,-7.09
2023-01-19T04:18:34.706Z,-6.96
2023-01-19T04:21:04.067Z,-7.00
2023-01-19T04:23:31.333Z,-6.99
2023-01-19T04:26:04.225Z,-7.08
2023-01-19T04:28:31.672Z,-7.17
2023-01-19T04:30:58.256Z,-7.22
2023-01-19T04:33:25.441Z,-7.22
2023-01-19T04:35:54.429Z,-7.38
2023-01-19T04:38:21.197Z,-7.38
2023-01-19T04:40:49.181Z,-7.43
2023-01-19T04:43:16.260Z,-7.42
2023-01-19T04:45:44.780Z,-7.46
2023-01-19T04:48:11.869Z,-7.51
2023-01-19T04:50:38.779Z,-7.59
2023-01-19T04:53:05.293Z,-7.55
2023-01-19T04:55:31.741Z,-7.51
2023-01-19T04:57:58.160Z,-7.54
2023-01-19T05:00:24.714Z,-7.65
2023-01-19T05:02:51.295Z,-7.63
2023-01-19T05:05:18.377Z,-7.69
2023-01-19T05:07:45.292Z,-7.70
2023-01-19T05:10:12.043Z,-7.74
2023-01-19T05:12:39.001Z,-7.62
2023-01-19T05:15:07.799Z,-7.51
2023-01-19T05:17:34.477Z,-7.47
2023-01-19T05:20:00.987Z,-7.44
2023-01-19T05:22:27.472Z,-7.43
2023-01-19T05:24:54.292Z,-7.49
2023-01-19T05:27:21.032Z,-7.47
2023-01-19T05:29:47.495Z,-7.54
2023-01-19T05:32:15.845Z,-7.56
2023-01-19T05:34:42.290Z,-7.62
2023-01-19T05:37:08.745Z,-7.60
2023-01-19T05:39:35.159Z,-7.60
2023-01-19T05:42:01.608Z,-7.66
2023-01-19T05:44:28.094Z,-7.55
2023-01-19T05:46:54.575Z,-7.57
2023-01-19T05:49:21.021Z,-7.46
2023-01-19T05:51:47.551Z,-7.38
2023-01-19T05:54:17.599Z,-7.27
2023-01-19T05:56:44.410Z,-7.35
2023-01-19T05:59:11.641Z,-7.30
2023-01-19T06:01:39.923Z,-7.37
2023-01-19T06:04:06.805Z,-7.37
2023-01-19T06:06:33.321Z,-7.56
2023-01-19T06:08:59.935Z,-7.46
2023-01-19T06:11:26.538Z,-7.44
2023-01-19T06:13:53.016Z,-7.53
2023-01-19T06:16:19.583Z,-7.60
2023-01-19T06:18:46.159Z,-7.64
2023-01-19T06:21:14.346Z,-7.69
2023-01-19T06:23:41.135Z,-7.62
2023-01-19T06:26:08.136Z,-7.68
2023-01-19T06:28:34.699Z,-7.71
2023-01-19T06:31:01.613Z,-7.74
2023-01-19T06:33:28.744Z,-7.73
2023-01-19T06:35:56.187Z,-7.69
2023-01-19T06:38:23.086Z,-7.62
2023-01-19T06:41:02.534Z,-7.65
2023-01-19T06:43:29.696Z,-7.61
2023-01-19T06:45:56.347Z,-7.62
2023-01-19T06:48:23.818Z,-7.59
2023-01-19T06:50:50.451Z,-7.63
2023-01-19T06:53:17.584Z,-7.65
2023-01-19T06:55:44.208Z,-7.49
2023-01-19T06:58:11.458Z,-7.46
2023-01-19T07:00:38.147Z,-7.43
2023-01-19T07:03:08.190Z,-7.42
2023-01-19T07:05:36.124Z,-7.40
2023-01-19T07:08:03.270Z,-7.47
2023-01-19T07:11:25.160Z,-7.44
2023-01-19T07:13:16.215Z,-7.46
2023-01-19T07:15:43.573Z,-7.48
2023-01-19T07:18:10.216Z,-7.52
2023-01-19T07:20:37.912Z,-7.45
2023-01-19T07:23:04.462Z,-7.48
2023-01-19T07:25:30.953Z,-7.40
2023-01-19T07:28:00.636Z,-7.40
2023-01-19T07:30:27.692Z,-7.47
2023-01-19T07:32:58.939Z,-7.49
2023-01-19T07:35:25.714Z,-7.54
2023-01-19T07:37:52.457Z,-7.50
2023-01-19T07:40:19.031Z,-7.49
2023-01-19T07:42:50.259Z,-7.39
2023-01-19T07:45:18.095Z,-7.38
2023-01-19T07:47:45.197Z,-7.39
2023-01-19T07:50:13.723Z,-7.38
2023-01-19T07:52:40.367Z,-7.29
2023-01-19T07:55:07.565Z,-7.38
2023-01-19T07:57:34.848Z,-7.36
2023-01-19T08:00:01.977Z,-7.29
2023-01-19T08:02:28.500Z,-7.25
2023-01-19T08:04:55.140Z,-7.26
2023-01-19T08:07:21.800Z,-7.24
2023-01-19T08:09:48.290Z,-7.14
2023-01-19T08:12:14.908Z,-7.13
2023-01-19T08:14:41.733Z,-7.22
2023-01-19T08:17:12.913Z,-7.08
2023-01-19T08:19:41.528Z,-7.14
2023-01-19T08:22:18.065Z,-7.14
2023-01-19T08:24:44.620Z,-7.12
2023-01-19T08:27:13.400Z,-7.00
2023-01-19T08:29:39.945Z,-6.96
2023-01-19T08:32:06.778Z,-6.99
2023-01-19T08:34:33.509Z,-6.98
2023-01-19T08:36:59.989Z,-6.93
2023-01-19T08:39:27.377Z,-6.94
2023-01-19T08:41:54.221Z,-6.93
2023-01-19T08:44:20.758Z,-6.85
2023-01-19T08:46:47.757Z,-6.81
2023-01-19T08:49:14.672Z,-6.81
2023-01-19T08:51:41.298Z,-6.75
2023-01-19T08:54:07.794Z,-6.72
2023-01-19T08:56:34.438Z,-6.67
2023-01-19T08:59:09.164Z,-6.67
2023-01-19T09:01:37.215Z,-6.54
2023-01-19T09:04:04.242Z,-6.61
2023-01-19T09:06:30.838Z,-6.52
2023-01-19T09:08:57.695Z,-6.52
2023-01-19T09:11:24.211Z,-6.44
2023-01-19T09:13:50.922Z,-6.34
2023-01-19T09:16:17.640Z,-6.26
2023-01-19T09:18:45.777Z,-6.18
2023-01-19T09:21:12.344Z,-6.13
2023-01-19T09:23:38.968Z,-6.10
2023-01-19T09:26:06.231Z,-5.99
2023-01-19T09:28:33.083Z,-5.98
2023-01-19T09:30:59.729Z,-5.96
2023-01-19T09:33:26.324Z,-5.83
2023-01-19T09:35:52.897Z,-5.84
2023-01-19T09:38:20.323Z,-5.64
2023-01-19T09:40:55.364Z,-5.71
2023-01-19T09:43:33.996Z,-5.60
2023-01-19T09:46:02.615Z,-5.48
2023-01-19T09:48:32.428Z,-5.28
2023-01-19T09:51:02.756Z,-5.26
2023-01-19T09:53:29.135Z,-5.04
2023-01-19T09:55:55.658Z,-4.61
2023-01-19T09:58:22.678Z,-4.27
2023-01-19T10:01:02.689Z,-4.05
2023-01-19T10:03:29.661Z,-3.50
2023-01-19T10:06:03.499Z,-3.05
2023-01-19T10:08:44.164Z,-2.48
2023-01-19T10:11:51.308Z,-2.17
2023-01-19T10:14:34.184Z,-2.02
2023-01-19T10:17:14.699Z,-1.90
2023-01-19T10:19:47.362Z,-1.65
2023-01-19T10:22:21.641Z,-1.83
2023-01-19T10:24:53.674Z,-1.47
2023-01-19T10:27:26.736Z,-1.28
2023-01-19T10:29:53.662Z,-1.99
2023-01-19T10:32:23.654Z,-1.89
2023-01-19T10:34:51.011Z,-1.65
2023-01-19T10:37:33.403Z,-1.44
2023-01-19T10:40:09.125Z,-1.25
2023-01-19T10:42:36.914Z,-1.31
2023-01-19T10:45:04.835Z,-1.43
2023-01-19T10:47:35.195Z,-1.21
2023-01-19T10:50:34.421Z,-1.26
2023-01-19T10:53:06.277Z,-1.79
2023-01-19T10:55:38.251Z,-1.36
2023-01-19T10:58:06.933Z,-1.24
2023-01-19T11:00:43.409Z,-1.48
2023-01-19T11:03:30.658Z,-1.36
2023-01-19T11:06:15.613Z,-0.97
2023-01-19T11:08:44.343Z,-1.14
2023-01-19T11:11:12.618Z,-0.82
2023-01-19T11:13:40.619Z,-1.24
2023-01-19T11:16:23.485Z,-0.59
2023-01-19T11:18:53.515Z,-0.50
2023-01-19T11:21:25.978Z,-0.59
2023-01-19T11:23:59.005Z,-0.66
2023-01-19T11:26:44.865Z,-1.00
2023-01-19T11:29:18.223Z,-0.70
2023-01-19T11:31:44.884Z,-0.85
2023-01-19T11:34:37.415Z,-0.17
2023-01-19T11:37:06.859Z,-0.07
2023-01-19T11:39:47.591Z,-0.14
2023-01-19T11:42:15.988Z,-0.47
2023-01-19T11:44:57.682Z,-0.22
2023-01-19T11:47:27.196Z,-0.40
2023-01-19T11:49:53.692Z,-0.44
2023-01-19T11:52:55.663Z,0.33
2023-01-19T11:55:21.980Z,-0.31
2023-01-19T11:57:53.444Z,-0.10
2023-01-19T12:00:29.095Z,-0.30
2023-01-19T12:03:03.072Z,-0.52
2023-01-19T12:05:33.487Z,-0.54
2023-01-19T12:08:07.016Z,-0.33
2023-01-19T12:10:39.004Z,-0.29
2023-01-19T12:13:05.445Z,-0.20
2023-01-19T12:15:37.474Z,-0.19
2023-01-19T12:18:06.390Z,-0.35
2023-01-19T12:20:40.488Z,-0.19
2023-01-19T12:23:45.777Z,1.28
2023-01-19T12:26:24.082Z,1.63
2023-01-19T12:28:52.570Z,2.29
2023-01-19T12:31:23.558Z,1.59
2023-01-19T12:33:51.282Z,1.62
2023-01-19T12:36:27.078Z,1.83
2023-01-19T12:38:56.272Z,2.72
2023-01-19T12:41:30.481Z,2.73
2023-01-19T12:44:12.404Z,2.41
2023-01-19T12:46:42.236Z,2.20
2023-01-19T12:49:33.578Z,2.57
2023-01-19T12:52:34.440Z,1.78
2023-01-19T12:55:02.667Z,1.39
2023-01-19T12:57:37.925Z,1.11
2023-01-19T13:00:24.355Z,0.29
2023-01-19T13:02:52.790Z,0.49
2023-01-19T13:05:45.936Z,-0.58
2023-01-19T13:08:14.927Z,-0.98
2023-01-19T13:10:59.354Z,-1.44
2023-01-19T13:13:27.787Z,-1.55
2023-01-19T13:15:56.033Z,-1.56
2023-01-19T13:18:31.816Z,-1.70
2023-01-19T13:21:01.487Z,-1.65
2023-01-19T13:23:51.896Z,-1.71
2023-01-19T13:26:30.968Z,-1.83
2023-01-19T13:29:25.139Z,-1.88
2023-01-19T13:31:54.769Z,-2.00
2023-01-19T13:34:24.635Z,-2.00
2023-01-19T13:36:54.411Z,-2.12
2023-01-19T13:39:28.538Z,-2.06
2023-01-19T13:41:59.175Z,-2.23
2023-01-19T13:44:29.498Z,-2.32
2023-01-19T13:46:57.545Z,-2.44
2023-01-19T13:49:37.050Z,-2.81
2023-01-19T13:52:27.757Z,-2.78
2023-01-19T13:55:03.818Z,-2.83
2023-01-19T13:57:32.124Z,-2.74
2023-01-19T14:00:04.047Z,-2.88
2023-01-19T14:02:30.783Z,-3.18
2023-01-19T14:04:57.560Z,-2.96
2023-01-19T14:07:26.602Z,-2.97
2023-01-19T14:10:06.715Z,-2.97
2023-01-19T14:12:33.547Z,-2.94
2023-01-19T14:15:00.804Z,-2.87
2023-01-19T14:17:30.344Z,-2.87
2023-01-19T14:19:58.568Z,-2.89
2023-01-19T14:22:42.990Z,-2.92
2023-01-19T14:25:34.077Z,-3.02
2023-01-19T14:28:25.500Z,-3.06
2023-01-19T14:31:01.592Z,-3.17
2023-01-19T14:33:43.616Z,-3.10
2023-01-19T14:36:39.289Z,-3.18
2023-01-19T14:39:14.137Z,-3.22
2023-01-19T14:41:47.920Z,-3.26
2023-01-19T14:44:21.382Z,-3.38
2023-01-19T14:46:49.099Z,-3.46
2023-01-19T14:49:34.167Z,-3.53
2023-01-19T14:52:08.467Z,-3.57
2023-01-19T14:54:40.027Z,-3.48
2023-01-19T14:57:12.494Z,-3.59
2023-01-19T14:59:39.169Z,-3.47
2023-01-19T15:02:06.373Z,-3.53
2023-01-19T15:04:33.198Z,-3.53
2023-01-19T15:06:59.768Z,-3.55
2023-01-19T15:09:26.828Z,-3.55
2023-01-19T15:11:53.625Z,-3.51
2023-01-19T15:14:21.467Z,-3.47
2023-01-19T15:16:48.475Z,-3.47
2023-01-19T15:19:16.948Z,-3.44
2023-01-19T15:21:46.841Z,-3.45
2023-01-19T15:24:15.838Z,-3.41
2023-01-19T15:26:43.599Z,-3.31
2023-01-19T15:29:18.101Z,-3.36
2023-01-19T15:31:44.841Z,-3.37
2023-01-19T15:34:13.405Z,-3.40
2023-01-19T15:36:40.452Z,-3.36
2023-01-19T15:39:06.932Z,-3.36
2023-01-19T15:41:33.640Z,-3.35
2023-01-19T15:44:00.150Z,-3.28
2023-01-19T15:46:27.328Z,-3.24
2023-01-19T15:48:54.283Z,-3.36
2023-01-19T15:51:22.842Z,-3.34
2023-01-19T15:53:50.579Z,-3.48
2023-01-19T15:56:31.185Z,-3.47
2023-01-19T15:58:58.773Z,-3.44
2023-01-19T16:01:32.016Z,-3.48
2023-01-19T16:04:01.213Z,-3.53
2023-01-19T16:06:28.666Z,-3.48
2023-01-19T16:08:59.747Z,-3.55
2023-01-19T16:11:33.517Z,-3.59
2023-01-19T16:14:00.745Z,-3.52
2023-01-19T16:16:28.226Z,-3.57
2023-01-19T16:18:55.996Z,-3.61
2023-01-19T16:21:23.825Z,-3.61
2023-01-19T16:23:50.439Z,-3.54
2023-01-19T16:26:34.840Z,-3.59
2023-01-19T16:29:07.784Z,-3.62
2023-01-19T16:31:34.627Z,-3.67
2023-01-19T16:34:01.110Z,-3.58
2023-01-19T16:36:29.856Z,-3.69
2023-01-19T16:39:01.405Z,-3.70
2023-01-19T16:41:28.224Z,-3.80
2023-01-19T16:43:56.888Z,-3.74
2023-01-19T16:46:26.484Z,-3.70
2023-01-19T16:48:53.474Z,-3.72
2023-01-19T16:51:20.366Z,-3.56
2023-01-19T16:53:49.518Z,-3.51
2023-01-19T16:56:16.156Z,-3.54
2023-01-19T16:58:43.063Z,-3.59
2023-01-19T17:01:17.240Z,-3.56
2023-01-19T17:03:45.516Z,-3.56
2023-01-19T17:06:14.760Z,-3.55
2023-01-19T17:08:41.599Z,-3.60
2023-01-19T17:11:10.845Z,-3.62
2023-01-19T17:13:38.180Z,-3.48
2023-01-19T17:16:06.364Z,-3.47
2023-01-19T17:18:34.660Z,-3.49
2023-01-19T17:21:07.395Z,-3.45
2023-01-19T17:23:36.309Z,-3.46
2023-01-19T17:26:04.318Z,-3.48
2023-01-19T17:28:31.013Z,-3.46
2023-01-19T17:31:05.003Z,-3.46
2023-01-19T17:33:31.492Z,-3.51
2023-01-19T17:36:06.912Z,-3.45
2023-01-19T17:38:33.545Z,-3.49
2023-01-19T17:41:00.026Z,-3.47
2023-01-19T17:43:26.882Z,-3.44
2023-01-19T17:45:53.426Z,-3.55
2023-01-19T17:48:19.943Z,-3.55
2023-01-19T17:50:46.603Z,-3.56
2023-01-19T17:53:13.033Z,-3.54
2023-01-19T17:55:39.476Z,-3.58
2023-01-19T17:58:06.050Z,-3.53
2023-01-19T18:00:32.539Z,-3.52
2023-01-19T18:02:59.015Z,-3.46
2023-01-19T18:05:25.509Z,-3.45
2023-01-19T18:07:51.936Z,-3.45
2023-01-19T18:10:18.385Z,-3.39
2023-01-19T18:12:45.221Z,-3.40
2023-01-19T18:15:12.355Z,-3.36
2023-01-19T18:17:39.546Z,-3.39
2023-01-19T18:20:06.334Z,-3.46
2023-01-19T18:22:33.426Z,-3.39
2023-01-19T18:25:01.536Z,-3.44
2023-01-19T18:27:29.167Z,-3.36
2023-01-19T18:29:55.985Z,-3.33
2023-01-19T18:32:22.419Z,-3.30
2023-01-19T18:34:51.020Z,-3.28
2023-01-19T18:37:17.516Z,-3.36
2023-01-19T18:39:44.163Z,-3.27
2023-01-19T18:42:10.605Z,-3.29
2023-01-19T18:44:37.166Z,-3.24
2023-01-19T18:47:03.629Z,-3.26
2023-01-19T18:49:30.039Z,-3.28
2023-01-19T18:51:56.482Z,-3.32
2023-01-19T18:54:23.132Z,-3.29
2023-01-19T18:56:50.659Z,-3.32
2023-01-19T18:59:17.171Z,-3.39
2023-01-19T19:01:43.775Z,-3.32
2023-01-19T19:04:10.356Z,-3.32
2023-01-19T19:06:36.971Z,-3.32
2023-01-19T19:09:03.566Z,-3.31
2023-01-19T19:11:30.174Z,-3.33
2023-01-19T19:13:59.802Z,-3.31
2023-01-19T19:16:26.451Z,-3.26
2023-01-19T19:18:53.088Z,-3.31
2023-01-19T19:21:20.879Z,-3.27
2023-01-19T19:23:55.473Z,-3.28
2023-01-19T19:26:23.115Z,-3.25
2023-01-19T19:28:49.930Z,-3.28
2023-01-19T19:31:20.503Z,-3.23
2023-01-19T19:33:48.860Z,-3.25
2023-01-19T19:36:15.602Z,-3.20
2023-01-19T19:38:43.027Z,-3.27
2023-01-19T19:41:12.370Z,-3.25
2023-01-19T19:43:39.270Z,-3.25
2023-01-19T19:46:08.292Z,-3.23
2023-01-19T19:48:38.860Z,-3.27
2023-01-19T19:51:19.033Z,-3.26
2023-01-19T19:53:46.520Z,-3.25
2023-01-19T19:56:13.486Z,-3.16
2023-01-19T19:58:41.979Z,-3.15
2023-01-19T20:01:24.680Z,-3.26
2023-01-19T20:03:53.383Z,-3.21
2023-01-19T20:06:22.600Z,-3.25
2023-01-19T20:08:50.622Z,-3.20
2023-01-19T20:11:21.075Z,-3.25
2023-01-19T20:13:47.792Z,-3.20
2023-01-19T20:16:16.437Z,-3.14
2023-01-19T20:18:45.159Z,-3.08
2023-01-19T20:21:20.498Z,-3.22
2023-01-19T20:23:48.052Z,-3.16
2023-01-19T20:26:17.647Z,-3.16
2023-01-19T20:28:44.252Z,-3.18
2023-01-19T20:31:13.710Z,-3.23
2023-01-19T20:33:40.537Z,-3.46
2023-01-19T20:36:08.013Z,-3.35
2023-01-19T20:38:34.686Z,-3.38
2023-01-19T20:41:01.177Z,-3.38
2023-01-19T20:43:28.763Z,-3.39
2023-01-19T20:45:55.227Z,-3.41
2023-01-19T20:48:21.907Z,-3.33
2023-01-19T20:50:48.371Z,-3.39
2023-01-19T20:53:14.961Z,-3.39
2023-01-19T20:55:41.398Z,-3.44
2023-01-19T20:58:07.859Z,-3.36
2023-01-19T21:00:34.688Z,-3.27
2023-01-19T21:03:01.247Z,-3.30
2023-01-19T21:05:28.144Z,-3.30
2023-01-19T21:07:54.598Z,-3.34
2023-01-19T21:10:22.126Z,-3.23
2023-01-19T21:12:48.625Z,-3.23
2023-01-19T21:15:15.310Z,-3.18
2023-01-19T21:17:43.710Z,-3.12
2023-01-19T21:20:11.792Z,-3.22
2023-01-19T21:22:38.269Z,-3.20
2023-01-19T21:25:05.137Z,-3.22
2023-01-19T21:27:31.595Z,-3.21
2023-01-19T21:29:58.678Z,-3.07
2023-01-19T21:32:25.214Z,-3.13
2023-01-19T21:34:51.658Z,-3.10
2023-01-19T21:37:18.263Z,-2.95
2023-01-19T21:39:44.896Z,-2.98
2023-01-19T21:42:11.400Z,-3.03
2023-01-19T21:44:37.961Z,-2.96
2023-01-19T21:47:09.773Z,-2.95
2023-01-19T21:49:36.248Z,-2.87
2023-01-19T21:52:02.746Z,-2.91
2023-01-19T21:54:29.166Z,-2.95
2023-01-19T21:56:55.610Z,-2.99
2023-01-19T21:59:22.278Z,-2.97
2023-01-19T22:01:48.962Z,-2.94
2023-01-19T22:04:15.475Z,-2.90
2023-01-19T22:06:41.924Z,-2.90
2023-01-19T22:09:08.618Z,-2.82
2023-01-19T22:11:35.234Z,-2.74
2023-01-19T22:14:01.966Z,-2.78
2023-01-19T22:16:29.438Z,-2.77
2023-01-19T22:18:59.543Z,-2.66
2023-01-19T22:21:31.913Z,-2.71
2023-01-19T22:24:00.061Z,-2.79
2023-01-19T22:26:28.235Z,-2.70
2023-01-19T22:28:59.877Z,-2.61
2023-01-19T22:31:28.462Z,-2.59
2023-01-19T22:33:55.665Z,-2.59
2023-01-19T22:36:27.703Z,-2.58
2023-01-19T22:38:58.255Z,-2.61
2023-01-19T22:41:40.651Z,-2.53
2023-01-19T22:44:10.532Z,-2.61
2023-01-19T22:46:37.642Z,-2.56
2023-01-19T22:49:05.563Z,-2.53
2023-01-19T22:51:32.753Z,-2.63
2023-01-19T22:53:59.569Z,-2.61
2023-01-19T22:56:28.727Z,-2.58
2023-01-19T22:58:55.265Z,-2.48
2023-01-19T23:01:25.588Z,-2.56
2023-01-19T23:03:53.236Z,-2.62
2023-01-19T23:06:24.950Z,-2.63
2023-01-19T23:08:52.191Z,-2.65
2023-01-19T23:11:22.485Z,-2.54
2023-01-19T23:13:49.534Z,-2.58
2023-01-19T23:16:16.518Z,-2.61
2023-01-19T23:18:43.746Z,-2.59
2023-01-19T23:21:15.784Z,-2.53
2023-01-19T23:23:43.191Z,-2.52
2023-01-19T23:26:12.659Z,-2.52
2023-01-19T23:28:40.110Z,-2.40
2023-01-19T23:31:13.059Z,-2.49
2023-01-19T23:33:41.460Z,-2.50
2023-01-19T23:36:08.482Z,-2.48
2023-01-19T23:38:34.942Z,-2.44
2023-01-19T23:41:01.550Z,-2.42
2023-01-19T23:43:28.027Z,-2.44
2023-01-19T23:45:54.506Z,-2.42
2023-01-19T23:48:21.040Z,-2.45
2023-01-19T23:50:47.540Z,-2.33
2023-01-19T23:53:14.070Z,-2.35
2023-01-19T23:55:40.520Z,-2.32
2023-01-19T23:58:06.966Z,-2.31
